Manchester, NH

8:07 PM EST on March 03, 2015 (GMT -0500)
Millyard | Change Station
CLOSE
Current Station
Personal Weather Station
Location: Manchester, NH
Elevation: 164 ft
Nearby Weather Stations
Active Advisory: Winter Weather Advisory

Elev 164 ft 43.00 °N, 71.47 °W | Updated 23 seconds ago

Overcast
Overcast
27.1 °F
Feels Like 27 °F
N
1.0
Wind Variable Wind from ENE
Gusts 9.0 mph

Today
High -- | Low -- °F
--% Chance of Precip.
Yesterday
High -- | Low -- °F
Precip. -- in
6:18 AM 5:37 PM
Waxing Gibbous, 97% visible
Pressure 30.09 in
Visibility 2.5 miles
Clouds Scattered Clouds 1500 ft
Mostly Cloudy 3200 ft
Overcast 5000 ft
Windchill 27 °F
Dew Point 22 °F
Humidity 79%
Rainfall 0.00 in
Snow Depth Not available.
UV 0.0 out of 12
Pollen .30 out of 12
Air Quality Not available.
Flu Activity Not available.
METAR KMHT 040053Z 19014G21KT 2 1/2SM -SN BR SCT015 BKN032 OVC050 M04/M06 A3003 RMK AO2 SNB05 SLP189 P0000 T10391061 $

More Conditions Fewer Conditions

Pressure 30.09 in
Visibility 2.5 miles
Clouds Scattered Clouds 1500 ft
Mostly Cloudy 3200 ft
Overcast 5000 ft
Windchill 27 °F
Dew Point 22 °F
Humidity 79%
Rainfall 0.00 in
Snow Depth Not available.
UV 0.0 out of 12
Pollen .30 out of 12
Air Quality Not available.
Flu Activity Not available.
METAR KMHT 040053Z 19014G21KT 2 1/2SM -SN BR SCT015 BKN032 OVC050 M04/M06 A3003 RMK AO2 SNB05 SLP189 P0000 T10391061 $

More Conditions Fewer Conditions

10-Day Weather Forecast

Almanac

Astronomy

Mar. 03, 2015 Rise Set
Actual Time
Civil Twilight
Nautical Twilight
Astronomical Twilight
Moon
Length of Visible Light
Length of Day
Tomorrow will be .
, % of the Moon is Illuminated

Today's Extremes

State Highs State Lows

Community

WunderPhotos

Upload Photos

1,802,340 photos uploaded!

WunderBlogs® & News

Nearby

Air Quality

  Air Quality AQ Index Pollutant
Not available.

Snow Depth

Station Depth Elevation

Earthquake Activity

City Distance Mag. Time & Date
Minimum magnitude displayed is 2.5.

Coastal Water Temperatures

Place Temperature

Nearby Weather Stations

Winter Weather Advisory
Statement as of 3:06 PM EST on March 03, 2015

... Winter Weather Advisory remains in effect until 7 am EST
Wednesday...

* hazard types... snow and freezing rain.

* Accumulations... snow accumulation of 2 to 4 inches.

* Timing... snow begins late this afternoon and continues into the
pre-dawn hours before ending. Precipitation could briefly mix
with or change to sleet or freezing rain as it ends.

* Impacts... Road will become snow covered and slippery.

* Winds... south 5 to 10 mph with gusts up to 20 mph.

* Temperatures... around 30.

Precautionary/preparedness actions...

A Winter Weather Advisory means that periods of snow... sleet... or
freezing rain will cause travel difficulties. Be prepared for
slippery roads and limited visibilities... and use caution while
driving.